sensor_id;sensor_type;location;lat;lon;timestamp;P1;durP1;ratioP1;P2;durP2;ratioP2
8331;SDS011;4203;48.144;14.118;2023-05-14T00:00:43;14.82;;;12.77;;
8331;SDS011;4203;48.144;14.118;2023-05-14T00:03:11;13.90;;;12.40;;
8331;SDS011;4203;48.144;14.118;2023-05-14T00:05:38;14.68;;;12.98;;
8331;SDS011;4203;48.144;14.118;2023-05-14T00:08:06;15.48;;;13.48;;
8331;SDS011;4203;48.144;14.118;2023-05-14T00:10:33;15.73;;;13.75;;
8331;SDS011;4203;48.144;14.118;2023-05-14T00:13:00;15.48;;;12.43;;
8331;SDS011;4203;48.144;14.118;2023-05-14T00:15:27;15.23;;;13.68;;
8331;SDS011;4203;48.144;14.118;2023-05-14T00:17:59;14.73;;;13.18;;
8331;SDS011;4203;48.144;14.118;2023-05-14T00:20:26;15.85;;;13.05;;
8331;SDS011;4203;48.144;14.118;2023-05-14T00:22:53;13.27;;;11.88;;
8331;SDS011;4203;48.144;14.118;2023-05-14T00:25:20;16.80;;;13.80;;
8331;SDS011;4203;48.144;14.118;2023-05-14T00:27:47;14.48;;;12.50;;
8331;SDS011;4203;48.144;14.118;2023-05-14T00:30:14;14.85;;;13.27;;
8331;SDS011;4203;48.144;14.118;2023-05-14T00:32:42;16.42;;;13.75;;
8331;SDS011;4203;48.144;14.118;2023-05-14T00:35:10;18.65;;;13.95;;
8331;SDS011;4203;48.144;14.118;2023-05-14T00:37:37;17.20;;;14.43;;
8331;SDS011;4203;48.144;14.118;2023-05-14T00:40:05;18.27;;;14.90;;
8331;SDS011;4203;48.144;14.118;2023-05-14T00:42:36;19.38;;;13.57;;
8331;SDS011;4203;48.144;14.118;2023-05-14T00:45:04;15.70;;;13.90;;
8331;SDS011;4203;48.144;14.118;2023-05-14T00:47:32;15.52;;;14.00;;
8331;SDS011;4203;48.144;14.118;2023-05-14T00:50:00;18.38;;;14.05;;
8331;SDS011;4203;48.144;14.118;2023-05-14T00:52:30;19.10;;;15.02;;
8331;SDS011;4203;48.144;14.118;2023-05-14T00:54:57;17.77;;;15.07;;
8331;SDS011;4203;48.144;14.118;2023-05-14T00:57:26;18.50;;;14.90;;
8331;SDS011;4203;48.144;14.118;2023-05-14T00:59:53;18.20;;;15.70;;
8331;SDS011;4203;48.144;14.118;2023-05-14T01:02:20;17.60;;;14.85;;
8331;SDS011;4203;48.144;14.118;2023-05-14T01:04:48;18.75;;;15.98;;
8331;SDS011;4203;48.144;14.118;2023-05-14T01:07:19;19.63;;;16.05;;
8331;SDS011;4203;48.144;14.118;2023-05-14T01:10:05;19.98;;;16.08;;
8331;SDS011;4203;48.144;14.118;2023-05-14T01:12:39;17.70;;;14.80;;
8331;SDS011;4203;48.144;14.118;2023-05-14T01:15:11;17.92;;;14.93;;
8331;SDS011;4203;48.144;14.118;2023-05-14T01:17:41;18.17;;;16.13;;
8331;SDS011;4203;48.144;14.118;2023-05-14T01:20:11;23.25;;;16.75;;
8331;SDS011;4203;48.144;14.118;2023-05-14T01:22:40;18.42;;;15.95;;
8331;SDS011;4203;48.144;14.118;2023-05-14T01:25:08;24.40;;;15.20;;
8331;SDS011;4203;48.144;14.118;2023-05-14T01:27:37;21.30;;;15.67;;
8331;SDS011;4203;48.144;14.118;2023-05-14T01:30:12;18.55;;;16.10;;
8331;SDS011;4203;48.144;14.118;2023-05-14T01:32:46;18.10;;;16.02;;
8331;SDS011;4203;48.144;14.118;2023-05-14T01:35:16;19.85;;;16.35;;
8331;SDS011;4203;48.144;14.118;2023-05-14T01:37:45;19.20;;;16.67;;
8331;SDS011;4203;48.144;14.118;2023-05-14T01:40:14;17.90;;;15.50;;
8331;SDS011;4203;48.144;14.118;2023-05-14T01:42:41;19.60;;;16.48;;
8331;SDS011;4203;48.144;14.118;2023-05-14T01:45:09;19.08;;;15.55;;
8331;SDS011;4203;48.144;14.118;2023-05-14T01:47:36;19.00;;;15.73;;
8331;SDS011;4203;48.144;14.118;2023-05-14T01:50:04;20.02;;;16.50;;
8331;SDS011;4203;48.144;14.118;2023-05-14T01:52:33;20.67;;;16.65;;
8331;SDS011;4203;48.144;14.118;2023-05-14T01:55:01;20.75;;;15.70;;
8331;SDS011;4203;48.144;14.118;2023-05-14T01:57:29;21.98;;;17.95;;
8331;SDS011;4203;48.144;14.118;2023-05-14T01:59:56;20.88;;;17.13;;
8331;SDS011;4203;48.144;14.118;2023-05-14T02:02:23;20.67;;;16.77;;
8331;SDS011;4203;48.144;14.118;2023-05-14T02:04:51;19.60;;;16.73;;
8331;SDS011;4203;48.144;14.118;2023-05-14T02:07:18;19.88;;;16.55;;
8331;SDS011;4203;48.144;14.118;2023-05-14T02:09:46;18.80;;;16.70;;
8331;SDS011;4203;48.144;14.118;2023-05-14T02:12:15;20.45;;;17.05;;
8331;SDS011;4203;48.144;14.118;2023-05-14T02:14:42;21.30;;;17.45;;
8331;SDS011;4203;48.144;14.118;2023-05-14T02:17:10;18.73;;;16.70;;
8331;SDS011;4203;48.144;14.118;2023-05-14T02:19:40;25.13;;;17.67;;
8331;SDS011;4203;48.144;14.118;2023-05-14T02:22:08;22.48;;;18.40;;
8331;SDS011;4203;48.144;14.118;2023-05-14T02:24:35;22.60;;;16.80;;
8331;SDS011;4203;48.144;14.118;2023-05-14T02:27:02;22.02;;;17.10;;
8331;SDS011;4203;48.144;14.118;2023-05-14T02:29:31;20.15;;;16.92;;
8331;SDS011;4203;48.144;14.118;2023-05-14T02:31:59;20.42;;;17.13;;
8331;SDS011;4203;48.144;14.118;2023-05-14T02:34:26;19.98;;;17.30;;
8331;SDS011;4203;48.144;14.118;2023-05-14T02:36:53;18.88;;;16.33;;
8331;SDS011;4203;48.144;14.118;2023-05-14T02:39:20;20.25;;;17.92;;
8331;SDS011;4203;48.144;14.118;2023-05-14T02:41:47;20.40;;;17.30;;
8331;SDS011;4203;48.144;14.118;2023-05-14T02:44:14;19.98;;;17.02;;
8331;SDS011;4203;48.144;14.118;2023-05-14T02:46:43;21.73;;;18.15;;
8331;SDS011;4203;48.144;14.118;2023-05-14T02:49:10;19.93;;;16.43;;
8331;SDS011;4203;48.144;14.118;2023-05-14T02:51:37;20.17;;;17.52;;
8331;SDS011;4203;48.144;14.118;2023-05-14T02:54:05;22.75;;;17.60;;
8331;SDS011;4203;48.144;14.118;2023-05-14T02:56:37;20.53;;;17.53;;
8331;SDS011;4203;48.144;14.118;2023-05-14T02:59:23;21.30;;;16.83;;
8331;SDS011;4203;48.144;14.118;2023-05-14T03:01:56;20.73;;;17.48;;
8331;SDS011;4203;48.144;14.118;2023-05-14T03:04:30;21.02;;;17.42;;
8331;SDS011;4203;48.144;14.118;2023-05-14T03:10:10;20.77;;;17.85;;
8331;SDS011;4203;48.144;14.118;2023-05-14T03:12:57;23.15;;;17.50;;
8331;SDS011;4203;48.144;14.118;2023-05-14T03:15:30;22.20;;;17.80;;
8331;SDS011;4203;48.144;14.118;2023-05-14T03:17:59;19.50;;;16.42;;
8331;SDS011;4203;48.144;14.118;2023-05-14T03:20:28;19.38;;;17.30;;
8331;SDS011;4203;48.144;14.118;2023-05-14T03:22:58;19.00;;;16.63;;
8331;SDS011;4203;48.144;14.118;2023-05-14T03:25:26;19.90;;;17.15;;
8331;SDS011;4203;48.144;14.118;2023-05-14T03:27:53;18.60;;;15.75;;
8331;SDS011;4203;48.144;14.118;2023-05-14T03:30:20;18.85;;;15.48;;
8331;SDS011;4203;48.144;14.118;2023-05-14T03:32:55;18.33;;;16.35;;
8331;SDS011;4203;48.144;14.118;2023-05-14T03:35:24;18.55;;;15.80;;
8331;SDS011;4203;48.144;14.118;2023-05-14T03:37:51;16.98;;;14.95;;
8331;SDS011;4203;48.144;14.118;2023-05-14T03:40:19;17.70;;;15.63;;
8331;SDS011;4203;48.144;14.118;2023-05-14T03:42:46;19.92;;;16.13;;
8331;SDS011;4203;48.144;14.118;2023-05-14T03:45:13;21.63;;;16.17;;
8331;SDS011;4203;48.144;14.118;2023-05-14T03:47:40;18.23;;;14.63;;
8331;SDS011;4203;48.144;14.118;2023-05-14T03:50:08;18.90;;;16.23;;
8331;SDS011;4203;48.144;14.118;2023-05-14T03:52:37;18.30;;;15.23;;
8331;SDS011;4203;48.144;14.118;2023-05-14T03:55:06;19.25;;;14.50;;
8331;SDS011;4203;48.144;14.118;2023-05-14T03:58:08;16.75;;;14.75;;
8331;SDS011;4203;48.144;14.118;2023-05-14T04:01:12;16.40;;;14.60;;
8331;SDS011;4203;48.144;14.118;2023-05-14T04:03:59;18.63;;;14.50;;
8331;SDS011;4203;48.144;14.118;2023-05-14T04:06:26;17.05;;;14.45;;
8331;SDS011;4203;48.144;14.118;2023-05-14T04:08:55;17.98;;;15.52;;
8331;SDS011;4203;48.144;14.118;2023-05-14T04:11:22;18.40;;;14.20;;
8331;SDS011;4203;48.144;14.118;2023-05-14T04:14:07;17.65;;;14.80;;
8331;SDS011;4203;48.144;14.118;2023-05-14T04:16:34;19.00;;;15.50;;
8331;SDS011;4203;48.144;14.118;2023-05-14T04:19:02;15.57;;;13.80;;
8331;SDS011;4203;48.144;14.118;2023-05-14T04:21:30;19.17;;;15.68;;
8331;SDS011;4203;48.144;14.118;2023-05-14T04:24:03;17.52;;;15.63;;
8331;SDS011;4203;48.144;14.118;2023-05-14T04:26:31;18.70;;;15.95;;
8331;SDS011;4203;48.144;14.118;2023-05-14T04:28:58;18.42;;;14.55;;
8331;SDS011;4203;48.144;14.118;2023-05-14T04:31:27;18.70;;;15.10;;
8331;SDS011;4203;48.144;14.118;2023-05-14T04:33:56;18.27;;;14.95;;
8331;SDS011;4203;48.144;14.118;2023-05-14T04:36:23;15.93;;;14.32;;
8331;SDS011;4203;48.144;14.118;2023-05-14T04:38:51;16.73;;;14.70;;
8331;SDS011;4203;48.144;14.118;2023-05-14T04:41:19;16.45;;;14.60;;
8331;SDS011;4203;48.144;14.118;2023-05-14T04:43:49;16.30;;;13.80;;
8331;SDS011;4203;48.144;14.118;2023-05-14T04:46:16;15.32;;;13.73;;
8331;SDS011;4203;48.144;14.118;2023-05-14T04:48:43;16.90;;;13.83;;
8331;SDS011;4203;48.144;14.118;2023-05-14T04:51:16;18.27;;;14.07;;
8331;SDS011;4203;48.144;14.118;2023-05-14T04:53:43;15.20;;;12.85;;
8331;SDS011;4203;48.144;14.118;2023-05-14T04:56:10;15.98;;;13.13;;
8331;SDS011;4203;48.144;14.118;2023-05-14T04:58:39;13.90;;;12.52;;
8331;SDS011;4203;48.144;14.118;2023-05-14T05:01:06;13.80;;;12.27;;
8331;SDS011;4203;48.144;14.118;2023-05-14T05:03:33;14.80;;;12.57;;
8331;SDS011;4203;48.144;14.118;2023-05-14T05:06:00;13.40;;;11.73;;
8331;SDS011;4203;48.144;14.118;2023-05-14T05:08:27;14.38;;;12.63;;
8331;SDS011;4203;48.144;14.118;2023-05-14T05:10:55;14.82;;;12.90;;
8331;SDS011;4203;48.144;14.118;2023-05-14T05:13:23;14.45;;;12.18;;
8331;SDS011;4203;48.144;14.118;2023-05-14T05:15:51;12.48;;;11.20;;
8331;SDS011;4203;48.144;14.118;2023-05-14T05:18:20;15.40;;;11.60;;
8331;SDS011;4203;48.144;14.118;2023-05-14T05:20:47;13.10;;;11.75;;
8331;SDS011;4203;48.144;14.118;2023-05-14T05:23:15;13.55;;;12.07;;
8331;SDS011;4203;48.144;14.118;2023-05-14T05:25:42;17.95;;;12.75;;
8331;SDS011;4203;48.144;14.118;2023-05-14T05:28:09;20.02;;;13.40;;
8331;SDS011;4203;48.144;14.118;2023-05-14T05:30:36;12.52;;;11.23;;
8331;SDS011;4203;48.144;14.118;2023-05-14T05:33:06;11.65;;;10.55;;
8331;SDS011;4203;48.144;14.118;2023-05-14T05:35:34;12.00;;;10.80;;
8331;SDS011;4203;48.144;14.118;2023-05-14T05:38:09;12.40;;;10.75;;
8331;SDS011;4203;48.144;14.118;2023-05-14T05:40:36;13.35;;;11.63;;
8331;SDS011;4203;48.144;14.118;2023-05-14T05:43:04;12.05;;;10.73;;
8331;SDS011;4203;48.144;14.118;2023-05-14T05:45:31;12.55;;;11.35;;
8331;SDS011;4203;48.144;14.118;2023-05-14T05:47:58;15.68;;;11.25;;
8331;SDS011;4203;48.144;14.118;2023-05-14T05:50:27;13.75;;;11.68;;
8331;SDS011;4203;48.144;14.118;2023-05-14T05:52:55;12.13;;;10.68;;
8331;SDS011;4203;48.144;14.118;2023-05-14T05:55:24;11.75;;;9.77;;
8331;SDS011;4203;48.144;14.118;2023-05-14T05:57:51;11.60;;;10.43;;
8331;SDS011;4203;48.144;14.118;2023-05-14T06:00:18;11.93;;;10.52;;
8331;SDS011;4203;48.144;14.118;2023-05-14T06:02:46;11.60;;;9.82;;
8331;SDS011;4203;48.144;14.118;2023-05-14T06:05:14;10.75;;;9.63;;
8331;SDS011;4203;48.144;14.118;2023-05-14T06:07:43;11.68;;;10.48;;
8331;SDS011;4203;48.144;14.118;2023-05-14T06:10:10;13.13;;;10.23;;
8331;SDS011;4203;48.144;14.118;2023-05-14T06:12:38;11.85;;;10.50;;
8331;SDS011;4203;48.144;14.118;2023-05-14T06:15:05;11.77;;;10.20;;
8331;SDS011;4203;48.144;14.118;2023-05-14T06:17:33;11.15;;;10.10;;
8331;SDS011;4203;48.144;14.118;2023-05-14T06:20:00;14.77;;;10.63;;
8331;SDS011;4203;48.144;14.118;2023-05-14T06:22:28;11.98;;;10.77;;
8331;SDS011;4203;48.144;14.118;2023-05-14T06:24:57;13.48;;;11.35;;
8331;SDS011;4203;48.144;14.118;2023-05-14T06:27:24;12.80;;;11.50;;
8331;SDS011;4203;48.144;14.118;2023-05-14T06:29:51;12.55;;;11.18;;
8331;SDS011;4203;48.144;14.118;2023-05-14T06:32:24;12.27;;;11.07;;
8331;SDS011;4203;48.144;14.118;2023-05-14T06:34:51;12.93;;;11.25;;
8331;SDS011;4203;48.144;14.118;2023-05-14T06:37:18;12.05;;;10.85;;
8331;SDS011;4203;48.144;14.118;2023-05-14T06:39:46;12.45;;;11.25;;
8331;SDS011;4203;48.144;14.118;2023-05-14T06:42:16;70.18;;;41.10;;
8331;SDS011;4203;48.144;14.118;2023-05-14T06:44:44;33.03;;;26.10;;
8331;SDS011;4203;48.144;14.118;2023-05-14T06:47:11;15.13;;;12.15;;
8331;SDS011;4203;48.144;14.118;2023-05-14T06:49:41;13.50;;;11.73;;
8331;SDS011;4203;48.144;14.118;2023-05-14T06:52:09;12.73;;;11.52;;
8331;SDS011;4203;48.144;14.118;2023-05-14T06:54:36;12.77;;;11.48;;
8331;SDS011;4203;48.144;14.118;2023-05-14T06:57:04;14.75;;;12.38;;
8331;SDS011;4203;48.144;14.118;2023-05-14T06:59:33;13.90;;;11.70;;
8331;SDS011;4203;48.144;14.118;2023-05-14T07:02:02;13.52;;;12.15;;
8331;SDS011;4203;48.144;14.118;2023-05-14T07:04:34;12.13;;;10.90;;
8331;SDS011;4203;48.144;14.118;2023-05-14T07:07:02;11.75;;;10.65;;
8331;SDS011;4203;48.144;14.118;2023-05-14T07:09:29;12.68;;;11.48;;
8331;SDS011;4203;48.144;14.118;2023-05-14T07:11:58;12.55;;;11.27;;
8331;SDS011;4203;48.144;14.118;2023-05-14T07:14:25;11.90;;;10.70;;
8331;SDS011;4203;48.144;14.118;2023-05-14T07:16:54;11.55;;;10.23;;
8331;SDS011;4203;48.144;14.118;2023-05-14T07:19:21;11.55;;;10.48;;
8331;SDS011;4203;48.144;14.118;2023-05-14T07:21:48;13.00;;;11.65;;
8331;SDS011;4203;48.144;14.118;2023-05-14T07:24:15;11.68;;;10.50;;
8331;SDS011;4203;48.144;14.118;2023-05-14T07:26:43;10.80;;;9.73;;
8331;SDS011;4203;48.144;14.118;2023-05-14T07:29:10;11.52;;;9.90;;
8331;SDS011;4203;48.144;14.118;2023-05-14T07:31:37;11.38;;;10.27;;
8331;SDS011;4203;48.144;14.118;2023-05-14T07:34:06;11.07;;;9.93;;
8331;SDS011;4203;48.144;14.118;2023-05-14T07:36:35;10.98;;;9.90;;
8331;SDS011;4203;48.144;14.118;2023-05-14T07:39:02;11.00;;;9.90;;
8331;SDS011;4203;48.144;14.118;2023-05-14T07:41:29;11.25;;;10.25;;
8331;SDS011;4203;48.144;14.118;2023-05-14T07:43:56;10.40;;;9.40;;
8331;SDS011;4203;48.144;14.118;2023-05-14T07:46:24;9.63;;;8.73;;
8331;SDS011;4203;48.144;14.118;2023-05-14T07:48:51;10.45;;;9.55;;
8331;SDS011;4203;48.144;14.118;2023-05-14T07:51:19;10.20;;;9.20;;
8331;SDS011;4203;48.144;14.118;2023-05-14T07:53:49;13.63;;;10.48;;
8331;SDS011;4203;48.144;14.118;2023-05-14T07:56:16;10.55;;;9.52;;
8331;SDS011;4203;48.144;14.118;2023-05-14T07:58:44;10.82;;;9.90;;
8331;SDS011;4203;48.144;14.118;2023-05-14T08:01:11;11.30;;;10.30;;
8331;SDS011;4203;48.144;14.118;2023-05-14T08:03:39;10.77;;;9.80;;
8331;SDS011;4203;48.144;14.118;2023-05-14T08:06:06;11.00;;;9.93;;
8331;SDS011;4203;48.144;14.118;2023-05-14T08:08:35;11.55;;;10.50;;
8331;SDS011;4203;48.144;14.118;2023-05-14T08:11:02;10.90;;;9.90;;
8331;SDS011;4203;48.144;14.118;2023-05-14T08:13:30;9.93;;;9.02;;
8331;SDS011;4203;48.144;14.118;2023-05-14T08:15:57;11.35;;;10.18;;
8331;SDS011;4203;48.144;14.118;2023-05-14T08:18:25;10.88;;;9.82;;
8331;SDS011;4203;48.144;14.118;2023-05-14T08:20:52;10.60;;;9.70;;
8331;SDS011;4203;48.144;14.118;2023-05-14T08:23:19;11.85;;;10.65;;
8331;SDS011;4203;48.144;14.118;2023-05-14T08:25:48;11.65;;;10.65;;
8331;SDS011;4203;48.144;14.118;2023-05-14T08:28:15;12.13;;;10.93;;
8331;SDS011;4203;48.144;14.118;2023-05-14T08:30:42;12.65;;;10.75;;
8331;SDS011;4203;48.144;14.118;2023-05-14T08:33:11;11.05;;;9.88;;
8331;SDS011;4203;48.144;14.118;2023-05-14T08:35:38;12.63;;;11.40;;
8331;SDS011;4203;48.144;14.118;2023-05-14T08:38:05;11.43;;;10.32;;
8331;SDS011;4203;48.144;14.118;2023-05-14T08:40:32;12.85;;;11.60;;
8331;SDS011;4203;48.144;14.118;2023-05-14T08:43:01;12.77;;;11.48;;
8331;SDS011;4203;48.144;14.118;2023-05-14T08:45:29;19.45;;;11.32;;
8331;SDS011;4203;48.144;14.118;2023-05-14T08:47:58;14.70;;;9.95;;
8331;SDS011;4203;48.144;14.118;2023-05-14T08:50:26;11.73;;;10.20;;
8331;SDS011;4203;48.144;14.118;2023-05-14T08:52:55;11.55;;;10.45;;
8331;SDS011;4203;48.144;14.118;2023-05-14T08:55:22;13.90;;;10.23;;
8331;SDS011;4203;48.144;14.118;2023-05-14T08:57:50;12.57;;;10.65;;
8331;SDS011;4203;48.144;14.118;2023-05-14T09:00:20;11.60;;;10.60;;
8331;SDS011;4203;48.144;14.118;2023-05-14T09:02:50;11.77;;;10.68;;
8331;SDS011;4203;48.144;14.118;2023-05-14T09:05:18;11.27;;;10.13;;
8331;SDS011;4203;48.144;14.118;2023-05-14T09:07:47;11.85;;;10.65;;
8331;SDS011;4203;48.144;14.118;2023-05-14T09:10:15;11.35;;;10.35;;
8331;SDS011;4203;48.144;14.118;2023-05-14T09:12:43;11.52;;;10.50;;
8331;SDS011;4203;48.144;14.118;2023-05-14T09:15:11;11.55;;;10.43;;
8331;SDS011;4203;48.144;14.118;2023-05-14T09:17:40;11.13;;;10.13;;
8331;SDS011;4203;48.144;14.118;2023-05-14T09:20:08;10.82;;;9.82;;
8331;SDS011;4203;48.144;14.118;2023-05-14T09:22:38;10.82;;;9.88;;
8331;SDS011;4203;48.144;14.118;2023-05-14T09:25:05;11.38;;;10.38;;
8331;SDS011;4203;48.144;14.118;2023-05-14T09:27:36;12.35;;;11.00;;
8331;SDS011;4203;48.144;14.118;2023-05-14T09:30:04;11.07;;;10.18;;
8331;SDS011;4203;48.144;14.118;2023-05-14T09:32:41;11.80;;;10.80;;
8331;SDS011;4203;48.144;14.118;2023-05-14T09:35:11;10.93;;;9.88;;
8331;SDS011;4203;48.144;14.118;2023-05-14T09:37:41;10.75;;;9.88;;
8331;SDS011;4203;48.144;14.118;2023-05-14T09:40:10;11.93;;;10.85;;
8331;SDS011;4203;48.144;14.118;2023-05-14T09:42:39;9.90;;;9.13;;
8331;SDS011;4203;48.144;14.118;2023-05-14T09:45:07;10.40;;;9.40;;
8331;SDS011;4203;48.144;14.118;2023-05-14T09:47:35;11.27;;;10.27;;
8331;SDS011;4203;48.144;14.118;2023-05-14T09:50:04;10.98;;;10.02;;
8331;SDS011;4203;48.144;14.118;2023-05-14T09:52:33;10.52;;;9.52;;
8331;SDS011;4203;48.144;14.118;2023-05-14T09:55:00;11.48;;;10.43;;
8331;SDS011;4203;48.144;14.118;2023-05-14T09:57:28;10.07;;;9.20;;
8331;SDS011;4203;48.144;14.118;2023-05-14T09:59:55;11.68;;;8.93;;
8331;SDS011;4203;48.144;14.118;2023-05-14T10:02:22;10.07;;;9.07;;
8331;SDS011;4203;48.144;14.118;2023-05-14T10:04:51;9.90;;;8.98;;
8331;SDS011;4203;48.144;14.118;2023-05-14T10:07:25;9.90;;;9.00;;
8331;SDS011;4203;48.144;14.118;2023-05-14T10:09:58;10.13;;;9.27;;
8331;SDS011;4203;48.144;14.118;2023-05-14T10:12:32;10.25;;;9.02;;
8331;SDS011;4203;48.144;14.118;2023-05-14T10:15:02;10.10;;;9.20;;
8331;SDS011;4203;48.144;14.118;2023-05-14T10:17:35;11.05;;;9.95;;
8331;SDS011;4203;48.144;14.118;2023-05-14T10:20:06;10.65;;;9.60;;
8331;SDS011;4203;48.144;14.118;2023-05-14T10:22:38;11.70;;;10.15;;
8331;SDS011;4203;48.144;14.118;2023-05-14T10:25:05;12.15;;;11.05;;
8331;SDS011;4203;48.144;14.118;2023-05-14T10:27:34;12.70;;;11.48;;
8331;SDS011;4203;48.144;14.118;2023-05-14T10:30:04;12.80;;;11.70;;
8331;SDS011;4203;48.144;14.118;2023-05-14T10:32:35;12.25;;;10.98;;
8331;SDS011;4203;48.144;14.118;2023-05-14T10:35:14;11.35;;;10.25;;
8331;SDS011;4203;48.144;14.118;2023-05-14T10:37:50;11.88;;;10.88;;
8331;SDS011;4203;48.144;14.118;2023-05-14T10:40:20;14.15;;;10.65;;
8331;SDS011;4203;48.144;14.118;2023-05-14T10:42:50;11.18;;;10.18;;
8331;SDS011;4203;48.144;14.118;2023-05-14T10:45:25;12.02;;;11.02;;
8331;SDS011;4203;48.144;14.118;2023-05-14T10:47:57;19.65;;;17.40;;
8331;SDS011;4203;48.144;14.118;2023-05-14T10:50:28;13.60;;;12.20;;
8331;SDS011;4203;48.144;14.118;2023-05-14T10:52:58;14.02;;;11.27;;
8331;SDS011;4203;48.144;14.118;2023-05-14T10:55:40;13.25;;;12.07;;
8331;SDS011;4203;48.144;14.118;2023-05-14T10:58:09;13.63;;;12.32;;
8331;SDS011;4203;48.144;14.118;2023-05-14T11:00:51;13.13;;;11.98;;
8331;SDS011;4203;48.144;14.118;2023-05-14T11:03:42;14.20;;;12.90;;
8331;SDS011;4203;48.144;14.118;2023-05-14T11:06:12;13.02;;;11.77;;
8331;SDS011;4203;48.144;14.118;2023-05-14T11:08:42;13.70;;;12.20;;
8331;SDS011;4203;48.144;14.118;2023-05-14T11:11:10;11.48;;;10.40;;
8331;SDS011;4203;48.144;14.118;2023-05-14T11:16:24;10.63;;;9.63;;
8331;SDS011;4203;48.144;14.118;2023-05-14T11:18:59;11.10;;;10.10;;
8331;SDS011;4203;48.144;14.118;2023-05-14T11:21:48;10.10;;;9.00;;
8331;SDS011;4203;48.144;14.118;2023-05-14T11:24:53;10.00;;;9.15;;
8331;SDS011;4203;48.144;14.118;2023-05-14T11:27:22;9.63;;;8.73;;
8331;SDS011;4203;48.144;14.118;2023-05-14T11:29:50;9.52;;;8.65;;
8331;SDS011;4203;48.144;14.118;2023-05-14T11:32:22;9.68;;;8.57;;
8331;SDS011;4203;48.144;14.118;2023-05-14T11:34:49;8.80;;;8.10;;
8331;SDS011;4203;48.144;14.118;2023-05-14T11:37:18;9.20;;;8.50;;
8331;SDS011;4203;48.144;14.118;2023-05-14T11:39:46;8.00;;;7.30;;
8331;SDS011;4203;48.144;14.118;2023-05-14T11:42:27;7.55;;;6.75;;
8331;SDS011;4203;48.144;14.118;2023-05-14T11:44:55;6.75;;;6.22;;
8331;SDS011;4203;48.144;14.118;2023-05-14T11:47:22;6.25;;;5.75;;
8331;SDS011;4203;48.144;14.118;2023-05-14T11:49:49;6.38;;;5.95;;
8331;SDS011;4203;48.144;14.118;2023-05-14T11:52:23;5.43;;;4.63;;
8331;SDS011;4203;48.144;14.118;2023-05-14T11:54:50;5.43;;;5.03;;
8331;SDS011;4203;48.144;14.118;2023-05-14T11:57:18;5.40;;;5.00;;
8331;SDS011;4203;48.144;14.118;2023-05-14T11:59:48;8.48;;;7.82;;
8331;SDS011;4203;48.144;14.118;2023-05-14T12:02:25;11.23;;;10.13;;
8331;SDS011;4203;48.144;14.118;2023-05-14T12:04:58;6.07;;;5.68;;
8331;SDS011;4203;48.144;14.118;2023-05-14T12:07:27;4.90;;;4.60;;
8331;SDS011;4203;48.144;14.118;2023-05-14T12:10:01;5.55;;;5.05;;
8331;SDS011;4203;48.144;14.118;2023-05-14T12:12:33;5.00;;;4.70;;
8331;SDS011;4203;48.144;14.118;2023-05-14T12:15:11;6.50;;;6.00;;
8331;SDS011;4203;48.144;14.118;2023-05-14T12:17:40;5.70;;;5.30;;
8331;SDS011;4203;48.144;14.118;2023-05-14T12:20:08;5.13;;;4.72;;
8331;SDS011;4203;48.144;14.118;2023-05-14T12:22:37;5.28;;;4.88;;
8331;SDS011;4203;48.144;14.118;2023-05-14T12:25:09;5.00;;;4.70;;
8331;SDS011;4203;48.144;14.118;2023-05-14T12:27:38;5.82;;;5.30;;
8331;SDS011;4203;48.144;14.118;2023-05-14T12:30:06;3.95;;;3.75;;
8331;SDS011;4203;48.144;14.118;2023-05-14T12:32:36;4.10;;;3.80;;
8331;SDS011;4203;48.144;14.118;2023-05-14T12:35:05;4.18;;;3.97;;
8331;SDS011;4203;48.144;14.118;2023-05-14T12:37:33;3.83;;;3.63;;
8331;SDS011;4203;48.144;14.118;2023-05-14T12:40:06;3.88;;;3.65;;
8331;SDS011;4203;48.144;14.118;2023-05-14T12:42:34;4.18;;;3.88;;
8331;SDS011;4203;48.144;14.118;2023-05-14T12:45:01;3.88;;;3.67;;
8331;SDS011;4203;48.144;14.118;2023-05-14T12:47:32;3.95;;;3.75;;
8331;SDS011;4203;48.144;14.118;2023-05-14T12:50:01;3.53;;;3.33;;
8331;SDS011;4203;48.144;14.118;2023-05-14T12:55:10;3.10;;;3.00;;
8331;SDS011;4203;48.144;14.118;2023-05-14T12:57:38;2.95;;;2.78;;
8331;SDS011;4203;48.144;14.118;2023-05-14T13:00:08;3.17;;;2.90;;
8331;SDS011;4203;48.144;14.118;2023-05-14T13:02:57;3.05;;;2.95;;
8331;SDS011;4203;48.144;14.118;2023-05-14T13:05:26;2.63;;;2.42;;
8331;SDS011;4203;48.144;14.118;2023-05-14T13:07:57;2.80;;;2.60;;
8331;SDS011;4203;48.144;14.118;2023-05-14T13:10:26;2.70;;;2.60;;
8331;SDS011;4203;48.144;14.118;2023-05-14T13:12:55;2.58;;;2.47;;
8331;SDS011;4203;48.144;14.118;2023-05-14T13:15:22;2.35;;;2.25;;
8331;SDS011;4203;48.144;14.118;2023-05-14T13:17:55;2.40;;;2.28;;
8331;SDS011;4203;48.144;14.118;2023-05-14T13:20:24;5.40;;;4.93;;
8331;SDS011;4203;48.144;14.118;2023-05-14T13:23:22;5.22;;;4.82;;
8331;SDS011;4203;48.144;14.118;2023-05-14T13:25:57;2.83;;;2.72;;
8331;SDS011;4203;48.144;14.118;2023-05-14T13:28:25;2.28;;;2.17;;
8331;SDS011;4203;48.144;14.118;2023-05-14T13:31:02;2.10;;;2.00;;
8331;SDS011;4203;48.144;14.118;2023-05-14T13:36:43;1.90;;;1.80;;
8331;SDS011;4203;48.144;14.118;2023-05-14T13:39:34;1.95;;;1.85;;
8331;SDS011;4203;48.144;14.118;2023-05-14T13:42:05;2.00;;;1.90;;
8331;SDS011;4203;48.144;14.118;2023-05-14T13:44:42;1.63;;;1.63;;
8331;SDS011;4203;48.144;14.118;2023-05-14T13:47:09;2.72;;;1.80;;
8331;SDS011;4203;48.144;14.118;2023-05-14T13:49:36;1.45;;;1.45;;
8331;SDS011;4203;48.144;14.118;2023-05-14T13:52:18;1.52;;;1.52;;
8331;SDS011;4203;48.144;14.118;2023-05-14T13:54:48;1.67;;;1.67;;
8331;SDS011;4203;48.144;14.118;2023-05-14T13:57:23;1.88;;;1.70;;
8331;SDS011;4203;48.144;14.118;2023-05-14T13:59:51;2.47;;;2.38;;
8331;SDS011;4203;48.144;14.118;2023-05-14T14:02:29;2.80;;;2.65;;
8331;SDS011;4203;48.144;14.118;2023-05-14T14:04:57;20.90;;;12.15;;
8331;SDS011;4203;48.144;14.118;2023-05-14T14:07:26;2.55;;;2.45;;
8331;SDS011;4203;48.144;14.118;2023-05-14T14:09:54;4.05;;;3.67;;
8331;SDS011;4203;48.144;14.118;2023-05-14T14:12:35;14.90;;;7.22;;
8331;SDS011;4203;48.144;14.118;2023-05-14T14:15:25;9.98;;;6.38;;
8331;SDS011;4203;48.144;14.118;2023-05-14T14:17:53;6.22;;;5.63;;
8331;SDS011;4203;48.144;14.118;2023-05-14T14:20:23;9.35;;;8.38;;
8331;SDS011;4203;48.144;14.118;2023-05-14T14:22:53;2.97;;;2.78;;
8331;SDS011;4203;48.144;14.118;2023-05-14T14:25:20;2.53;;;2.33;;
8331;SDS011;4203;48.144;14.118;2023-05-14T14:27:48;2.60;;;2.50;;
8331;SDS011;4203;48.144;14.118;2023-05-14T14:30:16;2.00;;;1.75;;
8331;SDS011;4203;48.144;14.118;2023-05-14T14:32:53;2.30;;;2.17;;
8331;SDS011;4203;48.144;14.118;2023-05-14T14:35:20;1.65;;;1.65;;
8331;SDS011;4203;48.144;14.118;2023-05-14T14:37:59;1.27;;;1.27;;
8331;SDS011;4203;48.144;14.118;2023-05-14T14:40:32;2.08;;;1.98;;
8331;SDS011;4203;48.144;14.118;2023-05-14T14:43:09;3.05;;;2.08;;
8331;SDS011;4203;48.144;14.118;2023-05-14T14:45:36;1.95;;;1.90;;
8331;SDS011;4203;48.144;14.118;2023-05-14T14:48:23;1.67;;;1.67;;
8331;SDS011;4203;48.144;14.118;2023-05-14T14:50:52;2.08;;;1.98;;
8331;SDS011;4203;48.144;14.118;2023-05-14T14:53:22;2.13;;;2.03;;
8331;SDS011;4203;48.144;14.118;2023-05-14T14:55:58;1.60;;;1.60;;
8331;SDS011;4203;48.144;14.118;2023-05-14T14:58:27;1.67;;;1.50;;
8331;SDS011;4203;48.144;14.118;2023-05-14T15:01:07;1.98;;;1.88;;
8331;SDS011;4203;48.144;14.118;2023-05-14T15:03:46;2.08;;;1.98;;
8331;SDS011;4203;48.144;14.118;2023-05-14T15:06:14;1.75;;;1.65;;
8331;SDS011;4203;48.144;14.118;2023-05-14T15:08:46;6.78;;;6.03;;
8331;SDS011;4203;48.144;14.118;2023-05-14T15:11:31;2.13;;;2.03;;